Hovedside
METAR-TAF:

METAR-TAF

Lufthavner :

Ouagadougou lufthavn

Ouagadougou, Burkina Faso

breddegrad: 12-21N, lengdegrad: 001-31W, høyde over havet: 316 m

Gjeldene værobservasjon

Denne rapporten ble laget for 33 minutter siden, klokken 06:00 UTC
Vind 2 kt fra Nord-nordøst
Temperatur 19°C
Luftfuktighet 37%
Trykk 1014 hPa
Sikt: 6000 m

METAR: DFFD 120600Z 02002KT 6000 NSC 19/04 Q1014 TEMPO 4000 HZ

Tid: 06:33 (06:33 UTC)

Varsel

Denne rapporten ble laget for 1 time og 33 minutter siden, klokken 05:00 UTC
Varsel gyldig fra 12. klokken 06 UTC til 13. klokken 12 UTC
Vind 8 kt fra Nordøst
Sikt: 8000 m
Midlertidig
fra 12. klokken 06 UTC til 12. klokken 10 UTC
Sikt: 4000 m
dis
Midlertidig
fra 12. klokken 17 UTC til 12. klokken 20 UTC
Sikt: 4000 m
dis
Midlertidig
fra 13. klokken 06 UTC til 13. klokken 10 UTC
Sikt: 4000 m
dis

TAF: DFFD 120500Z 1206/1312 04008KT 8000 NSC TEMPO 1206/1210 4000 HZ TEMPO 1217/1220 4000 HZ TEMPO 1306/1310 4000 HZ

Værobservasjoner og værvarsel for over 4000 flyplasser (METAR- og TAF-rapporter).

Tilgjengelige stasjoner er representert av de røde og gule prikkene på kartet.

Hold musepekeren over prikken for å se navnet på stasjonen.

Klikk så for å se værobservasjoner og -varsler.

For å forandre kartet kan du klikke på den grønne knappen med svart kryss for å zoome inn, på den grønne knappen med strek for å zoome ut, eller på de grønne pilene for å se tilstøtende kart.


METAR-TAF: